createdAt,value
2022-10-22T00:00:00.666Z,98927.23
2022-10-22T00:02:31.362Z,98922.40
2022-10-22T00:05:02.269Z,98921.94
2022-10-22T00:07:33.713Z,98920.86
2022-10-22T00:10:05.539Z,98917.04
2022-10-22T00:12:38.613Z,98921.13
2022-10-22T00:15:12.270Z,98918.56
2022-10-22T00:17:41.612Z,98918.34
2022-10-22T00:20:14.185Z,98912.91
2022-10-22T00:22:45.043Z,98908.75
2022-10-22T00:25:15.914Z,98915.57
2022-10-22T00:27:46.681Z,98913.48
2022-10-22T00:30:17.824Z,98912.78
2022-10-22T00:32:48.676Z,98908.11
2022-10-22T00:35:19.533Z,98905.80
2022-10-22T00:37:50.245Z,98916.44
2022-10-22T00:40:21.087Z,98915.70
2022-10-22T00:42:51.921Z,98909.09
2022-10-22T00:45:26.129Z,98900.20
2022-10-22T00:48:00.682Z,98906.71
2022-10-22T00:50:34.964Z,98907.85
2022-10-22T00:53:09.891Z,98899.13
2022-10-22T00:55:41.886Z,98891.80
2022-10-22T00:58:14.304Z,98887.13
2022-10-22T01:00:45.928Z,98888.73
2022-10-22T01:03:16.956Z,98899.55
2022-10-22T01:05:58.294Z,98906.48
2022-10-22T01:08:42.600Z,98906.45
2022-10-22T01:11:22.901Z,98908.31
2022-10-22T01:14:02.385Z,98908.66
2022-10-22T01:16:41.526Z,98903.29
2022-10-22T01:19:30.584Z,98899.31
2022-10-22T01:22:06.461Z,98897.86
2022-10-22T01:24:51.593Z,98905.15
2022-10-22T01:27:41.116Z,98908.36
2022-10-22T01:30:14.130Z,98909.30
2022-10-22T01:32:48.432Z,98899.44
2022-10-22T01:35:24.096Z,98887.98
2022-10-22T01:37:58.136Z,98899.58
2022-10-22T01:40:30.870Z,98911.35
2022-10-22T01:43:03.789Z,98911.73
2022-10-22T01:45:38.229Z,98902.99
2022-10-22T01:48:23.731Z,98893.38
2022-10-22T01:51:15.360Z,98895.39
2022-10-22T01:53:55.435Z,98893.54
2022-10-22T01:56:41.288Z,98895.67
2022-10-22T01:59:23.236Z,98908.32
2022-10-22T02:02:01.216Z,98903.83
2022-10-22T02:04:36.359Z,98900.82
2022-10-22T02:07:11.623Z,98902.48
2022-10-22T02:09:45.029Z,98899.66
2022-10-22T02:12:17.640Z,98882.69
2022-10-22T02:14:50.578Z,98872.95
2022-10-22T02:17:25.554Z,98875.38
2022-10-22T02:19:58.800Z,98873.83
2022-10-22T02:22:30.753Z,98877.12
2022-10-22T02:25:01.802Z,98877.23
2022-10-22T02:27:37.461Z,98874.42
2022-10-22T02:30:11.530Z,98875.89
2022-10-22T02:32:47.813Z,98878.23
2022-10-22T02:35:22.219Z,98878.48
2022-10-22T02:37:56.491Z,98872.79
2022-10-22T02:40:28.055Z,98859.17
2022-10-22T02:42:59.004Z,98855.16
2022-10-22T02:45:30.232Z,98860.27
2022-10-22T02:48:01.169Z,98861.73
2022-10-22T02:50:31.948Z,98863.49
2022-10-22T02:53:03.085Z,98867.84
2022-10-22T02:55:34.023Z,98874.70
2022-10-22T02:58:04.861Z,98867.30
2022-10-22T03:00:36.143Z,98865.84
2022-10-22T03:03:07.205Z,98861.36
2022-10-22T03:05:38.045Z,98853.67
2022-10-22T03:08:09.021Z,98850.12
2022-10-22T03:10:39.739Z,98864.55
2022-10-22T03:13:10.391Z,98864.11
2022-10-22T03:15:41.046Z,98873.42
2022-10-22T03:18:11.889Z,98873.33
2022-10-22T03:20:42.602Z,98876.13
2022-10-22T03:23:16.014Z,98869.80
2022-10-22T03:25:49.538Z,98862.70
2022-10-22T03:28:19.768Z,98860.60
2022-10-22T03:30:50.488Z,98859.45
2022-10-22T03:33:21.461Z,98849.70
2022-10-22T03:35:52.212Z,98838.33
2022-10-22T03:38:23.588Z,98827.29
2022-10-22T03:40:54.565Z,98824.33
2022-10-22T03:43:25.391Z,98832.24
2022-10-22T03:45:56.037Z,98839.73
2022-10-22T03:48:27.045Z,98839.34
2022-10-22T03:50:58.033Z,98847.75
2022-10-22T03:53:28.742Z,98855.40
2022-10-22T03:55:59.402Z,98862.42
2022-10-22T03:58:30.447Z,98872.23
2022-10-22T04:01:07.491Z,98876.25
2022-10-22T04:03:38.903Z,98876.91
2022-10-22T04:06:12.718Z,98869.99
2022-10-22T04:08:45.320Z,98865.08
2022-10-22T04:11:16.914Z,98861.98
2022-10-22T04:13:47.536Z,98852.34
2022-10-22T04:16:20.463Z,98838.06
2022-10-22T04:18:52.417Z,98835.23
2022-10-22T04:21:23.567Z,98840.67
2022-10-22T04:23:55.100Z,98846.52
2022-10-22T04:26:26.052Z,98851.38
2022-10-22T04:28:56.680Z,98867.81
2022-10-22T04:31:28.476Z,98880.12
2022-10-22T04:34:01.451Z,98891.67
2022-10-22T04:36:32.591Z,98896.48
2022-10-22T04:39:04.815Z,98902.08
2022-10-22T04:41:37.660Z,98906.34
2022-10-22T04:44:12.356Z,98915.41
2022-10-22T04:46:47.009Z,98922.59
2022-10-22T04:49:18.670Z,98909.34
2022-10-22T04:51:49.317Z,98897.73
2022-10-22T04:54:20.163Z,98878.19
2022-10-22T04:56:51.092Z,98880.19
2022-10-22T04:59:21.705Z,98886.48
2022-10-22T05:01:52.346Z,98886.31
2022-10-22T05:04:23.095Z,98893.23
2022-10-22T05:06:53.910Z,98902.91
2022-10-22T05:09:24.657Z,98904.08
2022-10-22T05:11:56.129Z,98900.89
2022-10-22T05:14:27.479Z,98896.53
2022-10-22T05:16:58.218Z,98893.48
2022-10-22T05:19:30.908Z,98894.58
2022-10-22T05:22:03.789Z,98903.98
2022-10-22T05:24:36.948Z,98903.41
2022-10-22T05:27:07.868Z,98908.19
2022-10-22T05:29:38.850Z,98905.73
2022-10-22T05:32:09.509Z,98913.50
2022-10-22T05:34:40.545Z,98922.58
2022-10-22T05:37:11.312Z,98926.05
2022-10-22T05:39:41.901Z,98930.42
2022-10-22T05:42:12.538Z,98918.27
2022-10-22T05:44:43.511Z,98909.27
2022-10-22T05:47:14.338Z,98910.85
2022-10-22T05:49:45.076Z,98917.50
2022-10-22T05:52:15.918Z,98920.43
2022-10-22T05:54:46.718Z,98919.03
2022-10-22T05:57:17.699Z,98915.00
2022-10-22T05:59:48.794Z,98905.42
2022-10-22T06:02:19.552Z,98901.25
2022-10-22T06:04:50.527Z,98911.85
2022-10-22T06:07:21.369Z,98918.49
2022-10-22T06:09:53.947Z,98926.17
2022-10-22T06:12:24.890Z,98925.18
2022-10-22T06:14:55.912Z,98923.91
2022-10-22T06:17:26.776Z,98916.94
2022-10-22T06:19:57.551Z,98924.17
2022-10-22T06:22:28.487Z,98928.34
2022-10-22T06:24:59.296Z,98928.17
2022-10-22T06:27:30.283Z,98924.08
2022-10-22T06:30:01.349Z,98917.70
2022-10-22T06:32:32.363Z,98933.19
2022-10-22T06:35:03.025Z,98935.77
2022-10-22T06:37:33.773Z,98939.17
2022-10-22T06:40:04.779Z,98948.80
2022-10-22T06:42:35.637Z,98957.52
2022-10-22T06:45:08.144Z,98965.66
2022-10-22T06:47:39.119Z,98958.91
2022-10-22T06:50:11.288Z,98946.89
2022-10-22T06:52:42.019Z,98948.09
2022-10-22T06:55:13.270Z,98953.19
2022-10-22T06:57:44.310Z,98960.89
2022-10-22T07:00:16.862Z,98961.88
2022-10-22T07:02:56.390Z,98968.75
2022-10-22T07:05:29.921Z,98973.73
2022-10-22T07:08:00.673Z,98976.41
2022-10-22T07:10:31.480Z,98980.63
2022-10-22T07:13:02.514Z,98985.46
2022-10-22T07:15:33.284Z,98984.00
2022-10-22T07:18:04.954Z,98980.86
2022-10-22T07:20:35.825Z,98989.56
2022-10-22T07:23:06.634Z,98993.08
2022-10-22T07:25:37.343Z,99000.21
2022-10-22T07:28:08.124Z,99005.02
2022-10-22T07:30:40.461Z,99000.11
2022-10-22T07:33:11.623Z,98990.81
2022-10-22T07:35:43.182Z,98996.36
2022-10-22T07:38:14.127Z,98995.09
2022-10-22T07:40:44.827Z,98996.66
2022-10-22T07:43:15.473Z,98996.34
2022-10-22T07:45:46.157Z,98994.44
2022-10-22T07:48:17.592Z,99003.73
2022-10-22T07:50:49.898Z,99004.76
2022-10-22T07:53:21.335Z,99009.94
2022-10-22T07:55:53.438Z,99010.51
2022-10-22T07:58:25.006Z,99019.02
2022-10-22T08:00:58.230Z,99019.39
2022-10-22T08:03:29.939Z,99014.58
2022-10-22T08:06:01.396Z,99010.52
2022-10-22T08:08:32.394Z,99009.99
2022-10-22T08:11:04.167Z,99015.17
2022-10-22T08:13:34.902Z,99014.08
2022-10-22T08:16:07.213Z,99018.23
2022-10-22T08:18:38.729Z,99023.10
2022-10-22T08:21:09.960Z,99027.33
2022-10-22T08:23:40.734Z,99028.23
2022-10-22T08:26:12.460Z,99023.27
2022-10-22T08:28:43.198Z,99021.39
2022-10-22T08:31:14.364Z,99028.51
2022-10-22T08:33:45.207Z,99024.02
2022-10-22T08:36:15.890Z,99017.44
2022-10-22T08:38:46.884Z,99014.28
2022-10-22T08:41:20.489Z,99006.17
2022-10-22T08:44:22.156Z,99000.33
2022-10-22T08:47:12.831Z,98994.86
2022-10-22T08:49:44.444Z,98999.27
2022-10-22T08:52:18.042Z,99015.78
2022-10-22T08:54:54.811Z,99020.77
2022-10-22T08:57:41.873Z,99024.17
2022-10-22T09:00:21.519Z,99033.05
2022-10-22T09:02:58.287Z,99042.06
2022-10-22T09:05:40.235Z,99046.18
2022-10-22T09:08:13.622Z,99046.25
2022-10-22T09:10:48.016Z,99042.05
2022-10-22T09:13:21.680Z,99033.24
2022-10-22T09:15:53.895Z,99027.02
2022-10-22T09:18:36.465Z,99016.22
2022-10-22T09:21:19.133Z,99016.09
2022-10-22T09:24:04.471Z,99017.60
2022-10-22T09:26:39.137Z,99018.15
2022-10-22T09:29:15.155Z,99025.57
2022-10-22T09:31:46.014Z,99029.79
2022-10-22T09:34:21.341Z,99034.32
2022-10-22T09:37:01.027Z,99030.16
2022-10-22T09:39:33.264Z,99026.77
2022-10-22T09:42:04.122Z,99018.27
2022-10-22T09:44:37.630Z,99029.73
2022-10-22T09:47:42.582Z,99035.35
2022-10-22T09:50:27.987Z,99042.06
2022-10-22T09:53:02.925Z,99043.20
2022-10-22T09:55:34.822Z,99044.56
2022-10-22T09:58:05.922Z,99047.73
2022-10-22T10:00:39.214Z,99045.93
2022-10-22T10:03:16.692Z,99041.93
2022-10-22T10:05:50.465Z,99046.79
2022-10-22T10:08:19.776Z,99048.86
2022-10-22T10:10:55.543Z,99044.48
2022-10-22T10:13:48.142Z,99042.86
2022-10-22T10:16:32.268Z,99043.30
2022-10-22T10:19:19.201Z,99048.29
2022-10-22T10:22:02.693Z,99049.39
2022-10-22T10:24:46.406Z,99049.55
2022-10-22T10:27:26.927Z,99059.94
2022-10-22T10:30:06.953Z,99059.08
2022-10-22T10:33:11.861Z,99061.73
2022-10-22T10:35:52.429Z,99060.63
2022-10-22T10:38:34.245Z,99060.23
2022-10-22T10:41:16.379Z,99061.86
2022-10-22T10:44:05.883Z,99065.65
2022-10-22T10:46:48.916Z,99068.95
2022-10-22T10:49:27.028Z,99076.73
2022-10-22T10:52:06.135Z,99073.77
2022-10-22T10:54:46.408Z,99073.62
2022-10-22T10:57:26.699Z,99077.92
2022-10-22T11:00:06.468Z,99078.13
2022-10-22T11:03:03.461Z,99070.96
2022-10-22T11:05:43.090Z,99063.48
2022-10-22T11:08:20.758Z,99061.56
2022-10-22T11:10:56.289Z,99061.77
2022-10-22T11:13:35.547Z,99062.40
2022-10-22T11:16:13.248Z,99062.20
2022-10-22T11:18:50.991Z,99063.34
2022-10-22T11:21:28.427Z,99062.41
2022-10-22T11:24:09.656Z,99066.33
2022-10-22T11:26:46.578Z,99071.11
2022-10-22T11:29:23.972Z,99067.34
2022-10-22T11:31:57.239Z,99065.33
2022-10-22T11:34:35.577Z,99058.16
2022-10-22T11:37:08.208Z,99050.35
2022-10-22T11:39:44.149Z,99044.90
2022-10-22T11:42:22.823Z,99030.50
2022-10-22T11:45:04.014Z,99014.10
2022-10-22T11:47:43.208Z,99000.66
2022-10-22T11:50:25.963Z,99000.17
2022-10-22T11:53:03.374Z,98996.64
2022-10-22T11:55:48.528Z,99001.78
2022-10-22T11:58:42.350Z,98997.73
2022-10-22T12:01:29.897Z,98989.11
2022-10-22T12:04:24.667Z,98998.36
2022-10-22T12:07:25.189Z,99007.16
2022-10-22T12:09:56.819Z,99012.98
2022-10-22T12:12:29.586Z,99004.10
2022-10-22T12:15:00.966Z,98995.80
2022-10-22T12:17:32.559Z,99002.65
2022-10-22T12:20:09.333Z,99019.92
2022-10-22T12:22:41.450Z,99017.70
2022-10-22T12:25:22.165Z,99014.16
2022-10-22T12:27:57.287Z,99011.85
2022-10-22T12:30:30.703Z,99012.25
2022-10-22T12:33:03.619Z,99013.92
2022-10-22T12:35:36.793Z,99013.47
2022-10-22T12:38:14.927Z,99007.13
2022-10-22T12:40:48.433Z,99005.95
2022-10-22T12:43:25.221Z,99018.52
2022-10-22T12:45:57.732Z,99027.17
2022-10-22T12:48:34.135Z,99026.51
2022-10-22T12:51:08.218Z,99025.84
2022-10-22T12:53:44.264Z,99028.90
2022-10-22T12:56:17.404Z,99026.33
2022-10-22T12:58:53.132Z,99031.04
2022-10-22T13:01:26.652Z,99030.07
2022-10-22T13:04:05.993Z,99033.92
2022-10-22T13:06:37.571Z,99030.59
2022-10-22T13:09:19.675Z,99030.66
2022-10-22T13:11:58.303Z,99030.39
2022-10-22T13:14:33.191Z,99026.05
2022-10-22T13:17:10.025Z,99031.30
2022-10-22T13:19:44.177Z,99030.10
2022-10-22T13:22:33.937Z,99033.50
2022-10-22T13:25:25.245Z,99033.26
2022-10-22T13:27:59.014Z,99034.41
2022-10-22T13:30:32.562Z,99044.48
2022-10-22T13:33:02.991Z,99045.17
2022-10-22T13:35:35.924Z,99044.85
2022-10-22T13:38:15.928Z,99040.75
2022-10-22T13:40:46.866Z,99040.02
2022-10-22T13:43:18.220Z,99047.55
2022-10-22T13:45:52.998Z,99044.27
2022-10-22T13:48:25.697Z,99052.41
2022-10-22T13:50:56.718Z,99061.45
2022-10-22T13:53:29.979Z,99064.25
2022-10-22T13:56:01.022Z,99067.91
2022-10-22T13:58:31.929Z,99066.21
2022-10-22T14:01:08.926Z,99070.78
2022-10-22T14:03:40.831Z,99071.14
2022-10-22T14:06:15.786Z,99076.59
2022-10-22T14:08:50.619Z,99079.47
2022-10-22T14:11:21.637Z,99076.83
2022-10-22T14:13:52.764Z,99075.79
2022-10-22T14:16:26.263Z,99073.15
2022-10-22T14:18:55.617Z,99069.63
2022-10-22T14:21:26.734Z,99072.15
2022-10-22T14:23:57.697Z,99067.91
2022-10-22T14:26:33.006Z,99068.11
2022-10-22T14:29:09.131Z,99071.10
2022-10-22T14:31:43.861Z,99072.67
2022-10-22T14:34:16.915Z,99080.02
2022-10-22T14:36:47.949Z,99084.58
2022-10-22T14:39:19.284Z,99086.37
2022-10-22T14:41:51.553Z,99086.96
2022-10-22T14:44:24.152Z,99092.27
2022-10-22T14:46:56.351Z,99087.98
2022-10-22T14:49:27.348Z,99089.86
2022-10-22T14:51:58.188Z,99093.58
2022-10-22T14:54:29.218Z,99092.84
2022-10-22T14:56:59.995Z,99094.97
2022-10-22T14:59:31.221Z,99097.17
2022-10-22T15:02:02.271Z,99096.30
2022-10-22T15:04:33.103Z,99097.31
2022-10-22T15:07:04.151Z,99094.08
2022-10-22T15:09:35.092Z,99089.47
2022-10-22T15:12:06.777Z,99090.35
2022-10-22T15:14:37.698Z,99093.66
2022-10-22T15:17:08.787Z,99090.80
2022-10-22T15:19:39.706Z,99088.95
2022-10-22T15:22:10.536Z,99095.11
2022-10-22T15:24:43.801Z,99099.77
2022-10-22T15:27:15.208Z,99105.95
2022-10-22T15:29:45.912Z,99110.72
2022-10-22T15:32:16.750Z,99116.30
2022-10-22T15:34:47.724Z,99117.64
2022-10-22T15:37:18.636Z,99125.88
2022-10-22T15:39:49.380Z,99126.79
2022-10-22T15:42:20.422Z,99125.63
2022-10-22T15:44:58.319Z,99130.54
2022-10-22T15:47:31.247Z,99135.41
2022-10-22T15:50:02.158Z,99136.02
2022-10-22T15:52:33.818Z,99135.03
2022-10-22T15:55:07.078Z,99138.88
2022-10-22T15:57:38.116Z,99141.23
2022-10-22T16:00:11.804Z,99141.62
2022-10-22T16:02:42.872Z,99146.16
2022-10-22T16:05:14.150Z,99147.11
2022-10-22T16:07:45.301Z,99147.77
2022-10-22T16:10:16.058Z,99154.08
2022-10-22T16:12:47.005Z,99157.59
2022-10-22T16:15:17.954Z,99161.59
2022-10-22T16:17:48.975Z,99163.44
2022-10-22T16:20:19.980Z,99160.77
2022-10-22T16:22:53.352Z,99167.02
2022-10-22T16:25:24.777Z,99168.61
2022-10-22T16:27:55.552Z,99174.80
2022-10-22T16:30:26.546Z,99180.20
2022-10-22T16:32:57.487Z,99185.44
2022-10-22T16:35:28.329Z,99189.42
2022-10-22T16:37:59.174Z,99195.90
2022-10-22T16:40:29.892Z,99199.73
2022-10-22T16:43:00.818Z,99206.17
2022-10-22T16:45:31.731Z,99212.08
2022-10-22T16:48:02.634Z,99214.27
2022-10-22T16:50:33.473Z,99215.16
2022-10-22T16:53:04.310Z,99216.00
2022-10-22T16:55:38.979Z,99218.07
2022-10-22T16:58:09.960Z,99226.58
2022-10-22T17:00:40.984Z,99230.17
2022-10-22T17:03:12.437Z,99229.02
2022-10-22T17:05:43.269Z,99229.13
2022-10-22T17:08:14.679Z,99229.21
2022-10-22T17:10:45.506Z,99234.55
2022-10-22T17:13:16.468Z,99235.48
2022-10-22T17:15:47.275Z,99238.47
2022-10-22T17:18:18.540Z,99249.37
2022-10-22T17:20:49.224Z,99257.37
2022-10-22T17:23:20.235Z,99262.56
2022-10-22T17:25:58.340Z,99266.93
2022-10-22T17:28:29.997Z,99270.34
2022-10-22T17:31:09.444Z,99269.66
2022-10-22T17:33:40.158Z,99277.66
2022-10-22T17:36:13.628Z,99277.39
2022-10-22T17:38:46.764Z,99276.98
2022-10-22T17:41:19.854Z,99279.51
2022-10-22T17:43:50.945Z,99280.91
2022-10-22T17:46:23.300Z,99284.55
2022-10-22T17:48:55.309Z,99286.70
2022-10-22T17:51:28.041Z,99290.77
2022-10-22T17:53:59.071Z,99289.48
2022-10-22T17:56:31.021Z,99291.48
2022-10-22T17:59:03.115Z,99289.34
2022-10-22T18:01:36.081Z,99292.86
2022-10-22T18:04:09.699Z,99292.39
2022-10-22T18:06:38.901Z,99293.42
2022-10-22T18:09:17.220Z,99295.70
2022-10-22T18:11:48.128Z,99297.27
2022-10-22T18:14:20.249Z,99298.67
2022-10-22T18:16:52.342Z,99300.09
2022-10-22T18:19:24.758Z,99302.33
2022-10-22T18:21:55.742Z,99306.69
2022-10-22T18:24:26.900Z,99308.67
2022-10-22T18:26:58.124Z,99312.83
2022-10-22T18:29:29.152Z,99310.92
2022-10-22T18:32:00.006Z,99306.94
2022-10-22T18:34:30.837Z,99308.07
2022-10-22T18:37:01.784Z,99303.09
2022-10-22T18:39:32.832Z,99302.00
2022-10-22T18:42:06.466Z,99298.89
2022-10-22T18:44:38.309Z,99301.34
2022-10-22T18:47:09.631Z,99306.80
2022-10-22T18:49:40.954Z,99303.23
2022-10-22T18:52:11.953Z,99308.64
2022-10-22T18:54:43.001Z,99312.50
2022-10-22T18:57:14.342Z,99311.80
2022-10-22T18:59:45.204Z,99314.11
2022-10-22T19:02:17.245Z,99314.13
2022-10-22T19:04:48.548Z,99313.23
2022-10-22T19:07:20.057Z,99316.33
2022-10-22T19:09:51.506Z,99317.91
2022-10-22T19:12:23.474Z,99322.17
2022-10-22T19:14:54.293Z,99325.86
2022-10-22T19:17:26.557Z,99327.23
2022-10-22T19:19:57.372Z,99325.50
2022-10-22T19:22:28.289Z,99331.70
2022-10-22T19:24:59.781Z,99334.08
2022-10-22T19:27:31.767Z,99339.82
2022-10-22T19:30:03.349Z,99347.32
2022-10-22T19:32:34.697Z,99342.88
2022-10-22T19:35:06.410Z,99346.09
2022-10-22T19:37:38.722Z,99350.43
2022-10-22T19:40:11.698Z,99343.14
2022-10-22T19:42:44.518Z,99345.20
2022-10-22T19:45:15.664Z,99344.23
2022-10-22T19:47:46.863Z,99347.83
2022-10-22T19:50:17.955Z,99359.02
2022-10-22T19:52:48.893Z,99363.21
2022-10-22T19:55:20.229Z,99372.55
2022-10-22T19:57:51.190Z,99376.77
2022-10-22T20:00:23.095Z,99379.90
2022-10-22T20:02:53.966Z,99373.39
2022-10-22T20:05:24.759Z,99374.58
2022-10-22T20:07:55.913Z,99372.85
2022-10-22T20:10:26.934Z,99379.83
2022-10-22T20:12:57.982Z,99379.37
2022-10-22T20:15:29.019Z,99378.88
2022-10-22T20:17:59.750Z,99373.15
2022-10-22T20:20:30.642Z,99377.79
2022-10-22T20:23:01.435Z,99380.17
2022-10-22T20:25:32.329Z,99375.55
2022-10-22T20:28:03.671Z,99377.43
2022-10-22T20:30:35.076Z,99386.73
2022-10-22T20:33:05.931Z,99389.07
2022-10-22T20:35:38.106Z,99393.08
2022-10-22T20:38:13.874Z,99397.09
2022-10-22T20:40:44.684Z,99399.63
2022-10-22T20:43:15.405Z,99398.98
2022-10-22T20:45:46.143Z,99397.15
2022-10-22T20:48:16.943Z,99389.70
2022-10-22T20:50:47.853Z,99391.74
2022-10-22T20:53:18.839Z,99393.39
2022-10-22T20:55:51.566Z,99387.80
2022-10-22T20:58:24.581Z,99392.13
2022-10-22T21:00:58.666Z,99391.87
2022-10-22T21:03:29.645Z,99396.24
2022-10-22T21:06:00.398Z,99395.17
2022-10-22T21:08:31.264Z,99401.88
2022-10-22T21:11:02.209Z,99398.21
2022-10-22T21:13:34.211Z,99398.30
2022-10-22T21:16:12.317Z,99398.08
2022-10-22T21:18:43.431Z,99398.17
2022-10-22T21:21:14.197Z,99402.38
2022-10-22T21:23:45.243Z,99407.45
2022-10-22T21:26:16.942Z,99406.02
2022-10-22T21:28:48.147Z,99414.54
2022-10-22T21:31:22.109Z,99413.42
2022-10-22T21:33:53.920Z,99411.10
2022-10-22T21:36:26.009Z,99410.63
2022-10-22T21:38:56.932Z,99413.77
2022-10-22T21:41:27.822Z,99418.61
2022-10-22T21:43:58.619Z,99417.61
2022-10-22T21:46:30.078Z,99411.84
2022-10-22T21:49:02.841Z,99416.02
2022-10-22T21:51:38.229Z,99415.98
2022-10-22T21:54:09.154Z,99416.70
2022-10-22T21:56:40.269Z,99419.31
2022-10-22T21:59:11.140Z,99421.09
2022-10-22T22:01:41.908Z,99420.42
2022-10-22T22:04:13.317Z,99423.57
2022-10-22T22:06:43.980Z,99425.98
2022-10-22T22:09:14.679Z,99423.45
2022-10-22T22:11:45.394Z,99419.42
2022-10-22T22:14:16.107Z,99423.13
2022-10-22T22:16:46.907Z,99425.42
2022-10-22T22:19:17.752Z,99426.39
2022-10-22T22:21:48.488Z,99425.10
2022-10-22T22:24:19.247Z,99427.82
2022-10-22T22:26:50.818Z,99428.27
2022-10-22T22:29:21.517Z,99432.75
2022-10-22T22:31:52.285Z,99425.31
2022-10-22T22:34:23.186Z,99429.62
2022-10-22T22:36:54.035Z,99437.20
2022-10-22T22:39:25.286Z,99433.77
2022-10-22T22:41:56.266Z,99430.88
2022-10-22T22:44:27.308Z,99426.05
2022-10-22T22:46:58.011Z,99429.08
2022-10-22T22:49:28.933Z,99429.02
2022-10-22T22:52:00.152Z,99427.12
2022-10-22T22:54:31.000Z,99425.45
2022-10-22T22:57:01.729Z,99428.11
2022-10-22T22:59:32.407Z,99428.64
2022-10-22T23:02:03.016Z,99426.64
2022-10-22T23:04:33.790Z,99427.98
2022-10-22T23:07:04.691Z,99430.86
2022-10-22T23:09:35.676Z,99425.98
2022-10-22T23:12:07.272Z,99423.61
2022-10-22T23:14:37.935Z,99425.75
2022-10-22T23:17:08.912Z,99428.98
2022-10-22T23:19:39.574Z,99437.23
2022-10-22T23:22:10.442Z,99443.64
2022-10-22T23:24:42.223Z,99437.67
2022-10-22T23:27:13.760Z,99436.33
2022-10-22T23:29:44.454Z,99438.73
2022-10-22T23:32:16.819Z,99435.67
2022-10-22T23:34:48.008Z,99440.09
2022-10-22T23:37:18.787Z,99434.49
2022-10-22T23:39:49.751Z,99429.83
2022-10-22T23:42:20.695Z,99421.41
2022-10-22T23:44:51.453Z,99417.70
2022-10-22T23:47:22.387Z,99422.17
2022-10-22T23:49:53.422Z,99417.35
2022-10-22T23:52:24.493Z,99422.04
2022-10-22T23:54:55.368Z,99423.38
2022-10-22T23:57:26.564Z,99426.12
2022-10-22T23:59:57.396Z,99426.31
